sensor_id;sensor_type;location;lat;lon;timestamp;temperature;humidity
3923;DHT22;1976;51.694;6.256;2023-08-12T00:01:31;21.10;99.90
3923;DHT22;1976;51.694;6.256;2023-08-12T00:03:57;21.00;99.90
3923;DHT22;1976;51.694;6.256;2023-08-12T00:06:23;21.00;99.90
3923;DHT22;1976;51.694;6.256;2023-08-12T00:08:48;21.00;99.90
3923;DHT22;1976;51.694;6.256;2023-08-12T00:11:14;20.90;99.90
3923;DHT22;1976;51.694;6.256;2023-08-12T00:13:40;20.90;99.90
3923;DHT22;1976;51.694;6.256;2023-08-12T00:16:05;20.90;99.90
3923;DHT22;1976;51.694;6.256;2023-08-12T00:18:31;20.90;99.90
3923;DHT22;1976;51.694;6.256;2023-08-12T00:21:06;20.80;99.90
3923;DHT22;1976;51.694;6.256;2023-08-12T00:23:33;20.80;99.90
3923;DHT22;1976;51.694;6.256;2023-08-12T00:25:58;20.80;99.90
3923;DHT22;1976;51.694;6.256;2023-08-12T00:28:24;20.80;99.90
3923;DHT22;1976;51.694;6.256;2023-08-12T00:30:50;20.80;99.90
3923;DHT22;1976;51.694;6.256;2023-08-12T00:33:15;20.80;99.90
3923;DHT22;1976;51.694;6.256;2023-08-12T00:35:41;20.80;99.90
3923;DHT22;1976;51.694;6.256;2023-08-12T00:38:06;20.80;99.90
3923;DHT22;1976;51.694;6.256;2023-08-12T00:40:32;20.90;99.90
3923;DHT22;1976;51.694;6.256;2023-08-12T00:42:58;20.90;99.90
3923;DHT22;1976;51.694;6.256;2023-08-12T00:45:24;20.90;99.90
3923;DHT22;1976;51.694;6.256;2023-08-12T00:47:49;20.90;99.90
3923;DHT22;1976;51.694;6.256;2023-08-12T00:50:15;20.90;99.90
3923;DHT22;1976;51.694;6.256;2023-08-12T00:52:41;20.90;99.90
3923;DHT22;1976;51.694;6.256;2023-08-12T00:55:07;20.80;99.90
3923;DHT22;1976;51.694;6.256;2023-08-12T00:57:33;20.80;99.90
3923;DHT22;1976;51.694;6.256;2023-08-12T00:59:59;20.80;99.90
3923;DHT22;1976;51.694;6.256;2023-08-12T01:02:25;20.80;99.90
3923;DHT22;1976;51.694;6.256;2023-08-12T01:04:51;20.70;99.90
3923;DHT22;1976;51.694;6.256;2023-08-12T01:07:16;20.70;99.90
3923;DHT22;1976;51.694;6.256;2023-08-12T01:09:42;20.70;99.90
3923;DHT22;1976;51.694;6.256;2023-08-12T01:12:24;20.70;99.90
3923;DHT22;1976;51.694;6.256;2023-08-12T01:15:07;20.70;99.90
3923;DHT22;1976;51.694;6.256;2023-08-12T01:17:34;20.70;99.90
3923;DHT22;1976;51.694;6.256;2023-08-12T01:20:01;20.80;99.90
3923;DHT22;1976;51.694;6.256;2023-08-12T01:22:35;20.70;99.90
3923;DHT22;1976;51.694;6.256;2023-08-12T01:25:05;20.70;99.90
3923;DHT22;1976;51.694;6.256;2023-08-12T01:27:31;20.80;99.90
3923;DHT22;1976;51.694;6.256;2023-08-12T01:29:56;20.80;99.90
3923;DHT22;1976;51.694;6.256;2023-08-12T01:37:32;20.60;99.90
3923;DHT22;1976;51.694;6.256;2023-08-12T01:40:00;20.60;99.90
3923;DHT22;1976;51.694;6.256;2023-08-12T01:42:27;20.60;99.90
3923;DHT22;1976;51.694;6.256;2023-08-12T01:44:54;20.60;99.90
3923;DHT22;1976;51.694;6.256;2023-08-12T01:47:20;20.60;99.90
3923;DHT22;1976;51.694;6.256;2023-08-12T01:49:46;20.60;99.90
3923;DHT22;1976;51.694;6.256;2023-08-12T01:52:11;20.60;99.90
3923;DHT22;1976;51.694;6.256;2023-08-12T01:54:37;20.70;99.90
3923;DHT22;1976;51.694;6.256;2023-08-12T01:57:03;20.70;99.90
3923;DHT22;1976;51.694;6.256;2023-08-12T01:59:34;20.70;99.90
3923;DHT22;1976;51.694;6.256;2023-08-12T02:02:00;20.80;99.90
3923;DHT22;1976;51.694;6.256;2023-08-12T02:04:26;20.80;99.90
3923;DHT22;1976;51.694;6.256;2023-08-12T02:06:53;20.80;99.90
3923;DHT22;1976;51.694;6.256;2023-08-12T02:09:20;20.90;99.90
3923;DHT22;1976;51.694;6.256;2023-08-12T02:11:46;20.80;99.90
3923;DHT22;1976;51.694;6.256;2023-08-12T02:14:11;20.80;99.90
3923;DHT22;1976;51.694;6.256;2023-08-12T02:16:37;20.70;99.90
3923;DHT22;1976;51.694;6.256;2023-08-12T02:19:03;20.70;99.90
3923;DHT22;1976;51.694;6.256;2023-08-12T02:21:29;20.70;99.90
3923;DHT22;1976;51.694;6.256;2023-08-12T02:23:55;20.70;99.90
3923;DHT22;1976;51.694;6.256;2023-08-12T02:26:20;20.70;99.90
3923;DHT22;1976;51.694;6.256;2023-08-12T02:28:46;20.80;99.90
3923;DHT22;1976;51.694;6.256;2023-08-12T02:31:12;20.70;99.90
3923;DHT22;1976;51.694;6.256;2023-08-12T02:33:37;20.70;99.90
3923;DHT22;1976;51.694;6.256;2023-08-12T02:36:03;20.80;99.90
3923;DHT22;1976;51.694;6.256;2023-08-12T02:38:29;20.70;99.90
3923;DHT22;1976;51.694;6.256;2023-08-12T02:40:55;20.70;99.90
3923;DHT22;1976;51.694;6.256;2023-08-12T02:43:20;20.70;99.90
3923;DHT22;1976;51.694;6.256;2023-08-12T02:45:46;20.70;99.90
3923;DHT22;1976;51.694;6.256;2023-08-12T02:48:12;20.70;99.90
3923;DHT22;1976;51.694;6.256;2023-08-12T02:50:38;20.70;99.90
3923;DHT22;1976;51.694;6.256;2023-08-12T02:53:04;20.60;99.90
3923;DHT22;1976;51.694;6.256;2023-08-12T02:55:30;20.60;99.90
3923;DHT22;1976;51.694;6.256;2023-08-12T02:57:58;20.70;99.90
3923;DHT22;1976;51.694;6.256;2023-08-12T03:00:23;20.60;99.90
3923;DHT22;1976;51.694;6.256;2023-08-12T03:02:49;20.60;99.90
3923;DHT22;1976;51.694;6.256;2023-08-12T03:05:14;20.60;99.90
3923;DHT22;1976;51.694;6.256;2023-08-12T03:07:40;20.60;99.90
3923;DHT22;1976;51.694;6.256;2023-08-12T03:10:07;20.60;99.90
3923;DHT22;1976;51.694;6.256;2023-08-12T03:12:32;20.60;99.90
3923;DHT22;1976;51.694;6.256;2023-08-12T03:14:58;20.60;99.90
3923;DHT22;1976;51.694;6.256;2023-08-12T03:17:24;20.60;99.90
3923;DHT22;1976;51.694;6.256;2023-08-12T03:19:49;20.60;99.90
3923;DHT22;1976;51.694;6.256;2023-08-12T03:22:15;20.60;99.90
3923;DHT22;1976;51.694;6.256;2023-08-12T03:24:41;20.60;99.90
3923;DHT22;1976;51.694;6.256;2023-08-12T03:27:06;20.70;99.90
3923;DHT22;1976;51.694;6.256;2023-08-12T03:29:32;20.70;99.90
3923;DHT22;1976;51.694;6.256;2023-08-12T03:31:58;20.80;99.90
3923;DHT22;1976;51.694;6.256;2023-08-12T03:34:23;20.80;99.90
3923;DHT22;1976;51.694;6.256;2023-08-12T03:36:49;20.80;99.90
3923;DHT22;1976;51.694;6.256;2023-08-12T03:39:16;20.80;99.90
3923;DHT22;1976;51.694;6.256;2023-08-12T03:41:41;20.80;99.90
3923;DHT22;1976;51.694;6.256;2023-08-12T03:44:07;20.80;99.90
3923;DHT22;1976;51.694;6.256;2023-08-12T03:46:33;20.80;99.90
3923;DHT22;1976;51.694;6.256;2023-08-12T03:48:58;20.90;99.90
3923;DHT22;1976;51.694;6.256;2023-08-12T03:51:24;20.90;99.90
3923;DHT22;1976;51.694;6.256;2023-08-12T03:53:49;20.90;99.90
3923;DHT22;1976;51.694;6.256;2023-08-12T03:56:15;20.90;99.90
3923;DHT22;1976;51.694;6.256;2023-08-12T03:58:43;20.90;99.90
3923;DHT22;1976;51.694;6.256;2023-08-12T04:01:08;20.90;99.90
3923;DHT22;1976;51.694;6.256;2023-08-12T04:03:34;20.90;99.90
3923;DHT22;1976;51.694;6.256;2023-08-12T04:06:00;20.90;99.90
3923;DHT22;1976;51.694;6.256;2023-08-12T04:08:25;20.90;99.90
3923;DHT22;1976;51.694;6.256;2023-08-12T04:10:51;20.90;99.90
3923;DHT22;1976;51.694;6.256;2023-08-12T04:13:17;20.90;99.90
3923;DHT22;1976;51.694;6.256;2023-08-12T04:15:48;20.90;99.90
3923;DHT22;1976;51.694;6.256;2023-08-12T04:18:14;21.00;99.90
3923;DHT22;1976;51.694;6.256;2023-08-12T04:20:40;21.00;99.90
3923;DHT22;1976;51.694;6.256;2023-08-12T04:23:06;21.00;99.90
3923;DHT22;1976;51.694;6.256;2023-08-12T04:25:31;21.10;99.90
3923;DHT22;1976;51.694;6.256;2023-08-12T04:27:57;21.00;99.90
3923;DHT22;1976;51.694;6.256;2023-08-12T04:30:23;21.10;99.90
3923;DHT22;1976;51.694;6.256;2023-08-12T04:32:49;21.20;99.90
3923;DHT22;1976;51.694;6.256;2023-08-12T04:35:14;21.20;99.90
3923;DHT22;1976;51.694;6.256;2023-08-12T04:37:40;21.30;99.90
3923;DHT22;1976;51.694;6.256;2023-08-12T04:40:06;21.30;99.90
3923;DHT22;1976;51.694;6.256;2023-08-12T04:42:35;21.30;99.90
3923;DHT22;1976;51.694;6.256;2023-08-12T04:45:00;21.40;99.90
3923;DHT22;1976;51.694;6.256;2023-08-12T04:47:26;21.50;99.90
3923;DHT22;1976;51.694;6.256;2023-08-12T04:49:52;21.50;99.90
3923;DHT22;1976;51.694;6.256;2023-08-12T04:52:18;21.40;99.90
3923;DHT22;1976;51.694;6.256;2023-08-12T04:54:43;21.40;99.90
3923;DHT22;1976;51.694;6.256;2023-08-12T04:57:09;21.30;99.90
3923;DHT22;1976;51.694;6.256;2023-08-12T04:59:35;21.30;99.90
3923;DHT22;1976;51.694;6.256;2023-08-12T05:02:01;21.30;99.90
3923;DHT22;1976;51.694;6.256;2023-08-12T05:04:26;21.30;99.90
3923;DHT22;1976;51.694;6.256;2023-08-12T05:06:52;21.20;99.90
3923;DHT22;1976;51.694;6.256;2023-08-12T05:09:19;21.20;99.90
3923;DHT22;1976;51.694;6.256;2023-08-12T05:11:44;21.20;99.90
3923;DHT22;1976;51.694;6.256;2023-08-12T05:14:10;21.20;99.90
3923;DHT22;1976;51.694;6.256;2023-08-12T05:16:35;21.20;99.90
3923;DHT22;1976;51.694;6.256;2023-08-12T05:19:01;21.20;99.90
3923;DHT22;1976;51.694;6.256;2023-08-12T05:21:27;21.20;99.90
3923;DHT22;1976;51.694;6.256;2023-08-12T05:23:52;21.20;99.90
3923;DHT22;1976;51.694;6.256;2023-08-12T05:26:18;21.20;99.90
3923;DHT22;1976;51.694;6.256;2023-08-12T05:28:45;21.20;99.90
3923;DHT22;1976;51.694;6.256;2023-08-12T05:31:11;21.20;99.90
3923;DHT22;1976;51.694;6.256;2023-08-12T05:33:36;21.10;99.90
3923;DHT22;1976;51.694;6.256;2023-08-12T05:36:02;21.10;99.90
3923;DHT22;1976;51.694;6.256;2023-08-12T05:38:28;21.10;99.90
3923;DHT22;1976;51.694;6.256;2023-08-12T05:40:54;21.10;99.90
3923;DHT22;1976;51.694;6.256;2023-08-12T05:43:19;21.00;99.90
3923;DHT22;1976;51.694;6.256;2023-08-12T05:45:45;20.90;99.90
3923;DHT22;1976;51.694;6.256;2023-08-12T05:48:11;20.90;99.90
3923;DHT22;1976;51.694;6.256;2023-08-12T05:50:36;21.00;99.90
3923;DHT22;1976;51.694;6.256;2023-08-12T05:53:02;20.90;99.90
3923;DHT22;1976;51.694;6.256;2023-08-12T05:55:28;20.90;99.90
3923;DHT22;1976;51.694;6.256;2023-08-12T05:57:53;20.90;99.90
3923;DHT22;1976;51.694;6.256;2023-08-12T06:00:19;20.90;99.90
3923;DHT22;1976;51.694;6.256;2023-08-12T06:02:44;20.80;99.90
3923;DHT22;1976;51.694;6.256;2023-08-12T06:05:10;20.80;99.90
3923;DHT22;1976;51.694;6.256;2023-08-12T06:07:35;20.70;99.90
3923;DHT22;1976;51.694;6.256;2023-08-12T06:10:02;20.40;99.90
3923;DHT22;1976;51.694;6.256;2023-08-12T06:12:27;20.30;99.90
3923;DHT22;1976;51.694;6.256;2023-08-12T06:14:53;20.20;99.90
3923;DHT22;1976;51.694;6.256;2023-08-12T06:17:19;20.20;99.90
3923;DHT22;1976;51.694;6.256;2023-08-12T06:19:44;20.20;99.90
3923;DHT22;1976;51.694;6.256;2023-08-12T06:22:10;20.20;99.90
3923;DHT22;1976;51.694;6.256;2023-08-12T06:24:35;20.20;99.90
3923;DHT22;1976;51.694;6.256;2023-08-12T06:27:01;20.30;99.90
3923;DHT22;1976;51.694;6.256;2023-08-12T06:29:26;20.30;99.90
3923;DHT22;1976;51.694;6.256;2023-08-12T06:31:53;20.30;99.90
3923;DHT22;1976;51.694;6.256;2023-08-12T06:34:18;20.30;99.90
3923;DHT22;1976;51.694;6.256;2023-08-12T06:36:44;20.40;99.90
3923;DHT22;1976;51.694;6.256;2023-08-12T06:39:10;20.40;99.90
3923;DHT22;1976;51.694;6.256;2023-08-12T06:41:35;20.40;99.90
3923;DHT22;1976;51.694;6.256;2023-08-12T06:44:01;20.40;99.90
3923;DHT22;1976;51.694;6.256;2023-08-12T06:46:28;20.20;99.90
3923;DHT22;1976;51.694;6.256;2023-08-12T06:48:56;20.10;99.90
3923;DHT22;1976;51.694;6.256;2023-08-12T06:51:21;20.10;99.90
3923;DHT22;1976;51.694;6.256;2023-08-12T06:53:47;20.10;99.90
3923;DHT22;1976;51.694;6.256;2023-08-12T06:56:13;20.10;99.90
3923;DHT22;1976;51.694;6.256;2023-08-12T06:58:38;20.10;99.90
3923;DHT22;1976;51.694;6.256;2023-08-12T07:01:04;20.10;99.90
3923;DHT22;1976;51.694;6.256;2023-08-12T07:03:30;20.10;99.90
3923;DHT22;1976;51.694;6.256;2023-08-12T07:05:55;20.10;99.90
3923;DHT22;1976;51.694;6.256;2023-08-12T07:08:21;20.10;99.90
3923;DHT22;1976;51.694;6.256;2023-08-12T07:10:47;20.20;99.90
3923;DHT22;1976;51.694;6.256;2023-08-12T07:13:13;20.30;99.90
3923;DHT22;1976;51.694;6.256;2023-08-12T07:15:38;20.40;99.90
3923;DHT22;1976;51.694;6.256;2023-08-12T07:18:04;20.40;99.90
3923;DHT22;1976;51.694;6.256;2023-08-12T07:20:30;20.50;99.90
3923;DHT22;1976;51.694;6.256;2023-08-12T07:22:55;20.50;99.90
3923;DHT22;1976;51.694;6.256;2023-08-12T07:25:21;20.50;99.90
3923;DHT22;1976;51.694;6.256;2023-08-12T07:27:48;20.50;99.90
3923;DHT22;1976;51.694;6.256;2023-08-12T07:30:13;20.50;99.90
3923;DHT22;1976;51.694;6.256;2023-08-12T07:32:39;20.50;99.90
3923;DHT22;1976;51.694;6.256;2023-08-12T07:35:05;20.40;99.90
3923;DHT22;1976;51.694;6.256;2023-08-12T07:37:33;20.40;99.90
3923;DHT22;1976;51.694;6.256;2023-08-12T07:39:59;20.30;99.90
3923;DHT22;1976;51.694;6.256;2023-08-12T07:42:25;20.30;99.90
3923;DHT22;1976;51.694;6.256;2023-08-12T07:44:50;20.30;99.90
3923;DHT22;1976;51.694;6.256;2023-08-12T07:47:16;20.30;99.90
3923;DHT22;1976;51.694;6.256;2023-08-12T07:49:43;20.30;99.90
3923;DHT22;1976;51.694;6.256;2023-08-12T07:52:08;20.30;99.90
3923;DHT22;1976;51.694;6.256;2023-08-12T07:54:35;20.20;99.90
3923;DHT22;1976;51.694;6.256;2023-08-12T07:57:00;20.20;99.90
3923;DHT22;1976;51.694;6.256;2023-08-12T07:59:26;20.30;99.90
3923;DHT22;1976;51.694;6.256;2023-08-12T08:01:52;20.30;99.90
3923;DHT22;1976;51.694;6.256;2023-08-12T08:04:17;20.40;99.90
3923;DHT22;1976;51.694;6.256;2023-08-12T08:06:43;20.40;99.90
3923;DHT22;1976;51.694;6.256;2023-08-12T08:09:09;20.40;99.90
3923;DHT22;1976;51.694;6.256;2023-08-12T08:11:36;20.40;99.90
3923;DHT22;1976;51.694;6.256;2023-08-12T08:14:01;20.30;99.90
3923;DHT22;1976;51.694;6.256;2023-08-12T08:16:27;20.30;99.90
3923;DHT22;1976;51.694;6.256;2023-08-12T08:18:52;20.30;99.90
3923;DHT22;1976;51.694;6.256;2023-08-12T08:21:18;20.30;99.90
3923;DHT22;1976;51.694;6.256;2023-08-12T08:23:44;20.40;99.90
3923;DHT22;1976;51.694;6.256;2023-08-12T08:26:09;20.60;99.90
3923;DHT22;1976;51.694;6.256;2023-08-12T08:28:35;20.70;99.90
3923;DHT22;1976;51.694;6.256;2023-08-12T08:31:01;20.80;99.90
3923;DHT22;1976;51.694;6.256;2023-08-12T08:33:27;20.80;99.90
3923;DHT22;1976;51.694;6.256;2023-08-12T08:35:53;20.70;99.90
3923;DHT22;1976;51.694;6.256;2023-08-12T08:38:19;20.70;99.90
3923;DHT22;1976;51.694;6.256;2023-08-12T08:40:45;20.70;99.90
3923;DHT22;1976;51.694;6.256;2023-08-12T08:43:13;20.70;99.90
3923;DHT22;1976;51.694;6.256;2023-08-12T08:45:41;20.70;99.90
3923;DHT22;1976;51.694;6.256;2023-08-12T08:48:08;20.60;99.90
3923;DHT22;1976;51.694;6.256;2023-08-12T08:50:36;20.60;99.90
3923;DHT22;1976;51.694;6.256;2023-08-12T08:53:05;20.50;99.90
3923;DHT22;1976;51.694;6.256;2023-08-12T08:55:31;20.60;99.90
3923;DHT22;1976;51.694;6.256;2023-08-12T08:57:57;20.60;99.90
3923;DHT22;1976;51.694;6.256;2023-08-12T09:00:23;20.60;99.90
3923;DHT22;1976;51.694;6.256;2023-08-12T09:02:50;20.70;99.90
3923;DHT22;1976;51.694;6.256;2023-08-12T09:05:17;20.70;99.90
3923;DHT22;1976;51.694;6.256;2023-08-12T09:07:43;20.70;99.90
3923;DHT22;1976;51.694;6.256;2023-08-12T09:10:10;20.70;99.90
3923;DHT22;1976;51.694;6.256;2023-08-12T09:12:36;20.60;99.90
3923;DHT22;1976;51.694;6.256;2023-08-12T09:15:03;20.60;99.90
3923;DHT22;1976;51.694;6.256;2023-08-12T09:17:29;20.60;99.90
3923;DHT22;1976;51.694;6.256;2023-08-12T09:19:55;20.60;99.90
3923;DHT22;1976;51.694;6.256;2023-08-12T09:22:24;20.70;99.90
3923;DHT22;1976;51.694;6.256;2023-08-12T09:24:57;20.70;99.90
3923;DHT22;1976;51.694;6.256;2023-08-12T09:27:23;20.80;99.90
3923;DHT22;1976;51.694;6.256;2023-08-12T09:29:50;21.00;99.90
3923;DHT22;1976;51.694;6.256;2023-08-12T09:32:19;21.00;99.90
3923;DHT22;1976;51.694;6.256;2023-08-12T09:34:51;21.10;99.90
3923;DHT22;1976;51.694;6.256;2023-08-12T09:37:19;21.10;99.90
3923;DHT22;1976;51.694;6.256;2023-08-12T09:39:47;21.10;99.90
3923;DHT22;1976;51.694;6.256;2023-08-12T09:42:13;21.10;99.90
3923;DHT22;1976;51.694;6.256;2023-08-12T09:44:39;21.20;99.90
3923;DHT22;1976;51.694;6.256;2023-08-12T09:47:08;21.20;99.90
3923;DHT22;1976;51.694;6.256;2023-08-12T09:49:35;21.30;99.90
3923;DHT22;1976;51.694;6.256;2023-08-12T09:52:02;21.50;99.90
3923;DHT22;1976;51.694;6.256;2023-08-12T09:54:28;21.70;99.90
3923;DHT22;1976;51.694;6.256;2023-08-12T09:56:58;22.20;99.90
3923;DHT22;1976;51.694;6.256;2023-08-12T09:59:32;22.10;99.90
3923;DHT22;1976;51.694;6.256;2023-08-12T10:02:00;22.30;99.90
3923;DHT22;1976;51.694;6.256;2023-08-12T10:04:39;22.40;99.90
3923;DHT22;1976;51.694;6.256;2023-08-12T10:07:09;22.60;99.90
3923;DHT22;1976;51.694;6.256;2023-08-12T10:09:36;22.60;99.90
3923;DHT22;1976;51.694;6.256;2023-08-12T10:12:03;22.50;99.90
3923;DHT22;1976;51.694;6.256;2023-08-12T10:14:29;22.10;99.90
3923;DHT22;1976;51.694;6.256;2023-08-12T10:16:55;22.00;99.90
3923;DHT22;1976;51.694;6.256;2023-08-12T10:19:23;22.00;99.90
3923;DHT22;1976;51.694;6.256;2023-08-12T10:21:54;22.30;99.90
3923;DHT22;1976;51.694;6.256;2023-08-12T10:24:21;22.50;99.90
3923;DHT22;1976;51.694;6.256;2023-08-12T10:26:47;22.80;99.90
3923;DHT22;1976;51.694;6.256;2023-08-12T10:29:15;23.10;99.90
3923;DHT22;1976;51.694;6.256;2023-08-12T10:31:41;23.20;99.90
3923;DHT22;1976;51.694;6.256;2023-08-12T10:34:18;23.40;99.90
3923;DHT22;1976;51.694;6.256;2023-08-12T10:36:44;23.80;99.90
3923;DHT22;1976;51.694;6.256;2023-08-12T10:39:10;25.10;99.90
3923;DHT22;1976;51.694;6.256;2023-08-12T10:41:36;26.10;99.90
3923;DHT22;1976;51.694;6.256;2023-08-12T10:44:04;27.20;99.90
3923;DHT22;1976;51.694;6.256;2023-08-12T10:46:36;28.10;99.90
3923;DHT22;1976;51.694;6.256;2023-08-12T10:49:10;28.50;99.90
3923;DHT22;1976;51.694;6.256;2023-08-12T10:51:49;28.30;99.90
3923;DHT22;1976;51.694;6.256;2023-08-12T11:02:19;27.40;99.90
3923;DHT22;1976;51.694;6.256;2023-08-12T11:04:49;27.00;99.90
3923;DHT22;1976;51.694;6.256;2023-08-12T11:07:19;26.70;99.90
3923;DHT22;1976;51.694;6.256;2023-08-12T11:09:46;26.60;99.90
3923;DHT22;1976;51.694;6.256;2023-08-12T11:12:18;26.70;99.90
3923;DHT22;1976;51.694;6.256;2023-08-12T11:14:53;26.80;99.90
3923;DHT22;1976;51.694;6.256;2023-08-12T11:17:19;27.00;99.90
3923;DHT22;1976;51.694;6.256;2023-08-12T11:19:45;27.20;99.90
3923;DHT22;1976;51.694;6.256;2023-08-12T11:22:11;27.70;99.90
3923;DHT22;1976;51.694;6.256;2023-08-12T11:24:40;29.10;99.90
3923;DHT22;1976;51.694;6.256;2023-08-12T11:27:09;30.20;99.90
3923;DHT22;1976;51.694;6.256;2023-08-12T11:29:37;29.60;99.90
3923;DHT22;1976;51.694;6.256;2023-08-12T11:32:04;28.70;99.90
3923;DHT22;1976;51.694;6.256;2023-08-12T11:34:30;28.50;99.90
3923;DHT22;1976;51.694;6.256;2023-08-12T11:36:56;29.00;99.90
3923;DHT22;1976;51.694;6.256;2023-08-12T11:39:22;28.90;99.90
3923;DHT22;1976;51.694;6.256;2023-08-12T11:41:48;28.50;99.90
3923;DHT22;1976;51.694;6.256;2023-08-12T11:44:15;28.20;99.90
3923;DHT22;1976;51.694;6.256;2023-08-12T11:46:41;28.30;99.90
3923;DHT22;1976;51.694;6.256;2023-08-12T11:49:07;28.10;99.90
3923;DHT22;1976;51.694;6.256;2023-08-12T11:51:34;28.00;99.90
3923;DHT22;1976;51.694;6.256;2023-08-12T11:54:01;28.10;99.90
3923;DHT22;1976;51.694;6.256;2023-08-12T11:56:27;28.00;99.90
3923;DHT22;1976;51.694;6.256;2023-08-12T11:58:53;28.10;99.90
3923;DHT22;1976;51.694;6.256;2023-08-12T12:01:21;28.20;99.90
3923;DHT22;1976;51.694;6.256;2023-08-12T12:03:51;28.10;99.90
3923;DHT22;1976;51.694;6.256;2023-08-12T12:06:17;28.10;99.90
3923;DHT22;1976;51.694;6.256;2023-08-12T12:08:44;28.00;99.90
3923;DHT22;1976;51.694;6.256;2023-08-12T12:11:10;27.80;99.90
3923;DHT22;1976;51.694;6.256;2023-08-12T12:13:35;27.90;99.90
3923;DHT22;1976;51.694;6.256;2023-08-12T12:16:01;28.50;99.90
3923;DHT22;1976;51.694;6.256;2023-08-12T12:18:27;28.90;99.90
3923;DHT22;1976;51.694;6.256;2023-08-12T12:20:57;29.10;99.90
3923;DHT22;1976;51.694;6.256;2023-08-12T12:23:30;29.60;99.90
3923;DHT22;1976;51.694;6.256;2023-08-12T12:26:02;29.60;99.90
3923;DHT22;1976;51.694;6.256;2023-08-12T12:28:28;29.10;99.90
3923;DHT22;1976;51.694;6.256;2023-08-12T12:30:54;28.50;99.90
3923;DHT22;1976;51.694;6.256;2023-08-12T12:33:20;27.90;99.90
3923;DHT22;1976;51.694;6.256;2023-08-12T12:35:46;27.40;99.90
3923;DHT22;1976;51.694;6.256;2023-08-12T12:38:11;27.50;99.90
3923;DHT22;1976;51.694;6.256;2023-08-12T12:40:37;27.50;99.90
3923;DHT22;1976;51.694;6.256;2023-08-12T12:43:04;27.60;99.90
3923;DHT22;1976;51.694;6.256;2023-08-12T12:45:29;27.90;99.90
3923;DHT22;1976;51.694;6.256;2023-08-12T12:47:55;27.90;99.90
3923;DHT22;1976;51.694;6.256;2023-08-12T12:50:20;27.60;99.90
3923;DHT22;1976;51.694;6.256;2023-08-12T12:52:46;27.40;99.90
3923;DHT22;1976;51.694;6.256;2023-08-12T12:55:12;27.00;99.90
3923;DHT22;1976;51.694;6.256;2023-08-12T12:57:38;27.00;99.90
3923;DHT22;1976;51.694;6.256;2023-08-12T13:00:04;27.00;99.90
3923;DHT22;1976;51.694;6.256;2023-08-12T13:02:30;27.00;99.90
3923;DHT22;1976;51.694;6.256;2023-08-12T13:04:55;27.10;99.90
3923;DHT22;1976;51.694;6.256;2023-08-12T13:07:21;27.10;99.90
3923;DHT22;1976;51.694;6.256;2023-08-12T13:09:47;27.20;99.90
3923;DHT22;1976;51.694;6.256;2023-08-12T13:12:13;27.20;99.90
3923;DHT22;1976;51.694;6.256;2023-08-12T13:14:39;27.50;99.90
3923;DHT22;1976;51.694;6.256;2023-08-12T13:17:04;28.20;99.90
3923;DHT22;1976;51.694;6.256;2023-08-12T13:19:30;28.70;99.50
3923;DHT22;1976;51.694;6.256;2023-08-12T13:21:56;29.30;99.10
3923;DHT22;1976;51.694;6.256;2023-08-12T13:24:21;29.90;97.90
3923;DHT22;1976;51.694;6.256;2023-08-12T13:26:47;30.40;97.40
3923;DHT22;1976;51.694;6.256;2023-08-12T13:29:12;31.60;96.30
3923;DHT22;1976;51.694;6.256;2023-08-12T13:31:38;33.30;94.10
3923;DHT22;1976;51.694;6.256;2023-08-12T13:34:05;34.50;91.30
3923;DHT22;1976;51.694;6.256;2023-08-12T13:36:30;35.20;90.10
3923;DHT22;1976;51.694;6.256;2023-08-12T13:38:56;35.80;88.50
3923;DHT22;1976;51.694;6.256;2023-08-12T13:41:22;36.60;84.60
3923;DHT22;1976;51.694;6.256;2023-08-12T13:43:47;37.00;82.50
3923;DHT22;1976;51.694;6.256;2023-08-12T13:46:13;37.60;79.70
3923;DHT22;1976;51.694;6.256;2023-08-12T13:48:38;38.10;76.70
3923;DHT22;1976;51.694;6.256;2023-08-12T13:51:04;38.90;73.00
3923;DHT22;1976;51.694;6.256;2023-08-12T13:53:30;39.40;70.10
3923;DHT22;1976;51.694;6.256;2023-08-12T13:55:55;39.40;70.40
3923;DHT22;1976;51.694;6.256;2023-08-12T13:58:21;40.10;69.60
3923;DHT22;1976;51.694;6.256;2023-08-12T14:00:46;40.20;66.70
3923;DHT22;1976;51.694;6.256;2023-08-12T14:03:12;40.20;67.60
3923;DHT22;1976;51.694;6.256;2023-08-12T14:05:38;40.60;65.00
3923;DHT22;1976;51.694;6.256;2023-08-12T14:08:04;41.20;63.50
3923;DHT22;1976;51.694;6.256;2023-08-12T14:10:30;40.40;62.60
3923;DHT22;1976;51.694;6.256;2023-08-12T14:12:56;38.80;64.00
3923;DHT22;1976;51.694;6.256;2023-08-12T14:15:21;37.60;66.40
3923;DHT22;1976;51.694;6.256;2023-08-12T14:17:47;38.00;67.70
3923;DHT22;1976;51.694;6.256;2023-08-12T14:20:13;38.80;66.00
3923;DHT22;1976;51.694;6.256;2023-08-12T14:22:40;38.80;63.60
3923;DHT22;1976;51.694;6.256;2023-08-12T14:25:06;38.40;62.30
3923;DHT22;1976;51.694;6.256;2023-08-12T14:27:32;37.50;63.70
3923;DHT22;1976;51.694;6.256;2023-08-12T14:29:58;36.90;66.40
3923;DHT22;1976;51.694;6.256;2023-08-12T14:32:24;36.30;66.60
3923;DHT22;1976;51.694;6.256;2023-08-12T14:34:49;36.00;69.10
3923;DHT22;1976;51.694;6.256;2023-08-12T14:37:15;35.30;67.20
3923;DHT22;1976;51.694;6.256;2023-08-12T14:39:41;34.40;69.70
3923;DHT22;1976;51.694;6.256;2023-08-12T14:42:06;34.00;72.00
3923;DHT22;1976;51.694;6.256;2023-08-12T14:44:34;33.60;73.50
3923;DHT22;1976;51.694;6.256;2023-08-12T14:47:00;33.10;75.60
3923;DHT22;1976;51.694;6.256;2023-08-12T14:49:26;33.40;74.10
3923;DHT22;1976;51.694;6.256;2023-08-12T14:51:54;34.10;75.20
3923;DHT22;1976;51.694;6.256;2023-08-12T14:54:19;34.70;71.20
3923;DHT22;1976;51.694;6.256;2023-08-12T14:56:45;34.10;71.20
3923;DHT22;1976;51.694;6.256;2023-08-12T14:59:11;32.70;71.90
3923;DHT22;1976;51.694;6.256;2023-08-12T15:01:36;31.80;72.80
3923;DHT22;1976;51.694;6.256;2023-08-12T15:04:02;30.80;74.80
3923;DHT22;1976;51.694;6.256;2023-08-12T15:06:28;30.10;76.40
3923;DHT22;1976;51.694;6.256;2023-08-12T15:08:54;30.40;77.10
3923;DHT22;1976;51.694;6.256;2023-08-12T15:11:20;30.30;77.90
3923;DHT22;1976;51.694;6.256;2023-08-12T15:13:45;30.10;78.10
3923;DHT22;1976;51.694;6.256;2023-08-12T15:16:11;29.50;79.80
3923;DHT22;1976;51.694;6.256;2023-08-12T15:18:37;29.70;80.90
3923;DHT22;1976;51.694;6.256;2023-08-12T15:21:02;30.10;80.60
3923;DHT22;1976;51.694;6.256;2023-08-12T15:23:28;30.70;77.00
3923;DHT22;1976;51.694;6.256;2023-08-12T15:25:54;31.50;75.10
3923;DHT22;1976;51.694;6.256;2023-08-12T15:28:20;32.30;72.90
3923;DHT22;1976;51.694;6.256;2023-08-12T15:30:49;32.80;69.60
3923;DHT22;1976;51.694;6.256;2023-08-12T15:33:15;32.70;68.80
3923;DHT22;1976;51.694;6.256;2023-08-12T15:35:40;32.60;70.50
3923;DHT22;1976;51.694;6.256;2023-08-12T15:38:06;32.60;70.50
3923;DHT22;1976;51.694;6.256;2023-08-12T15:40:32;32.80;70.30
3923;DHT22;1976;51.694;6.256;2023-08-12T15:42:57;32.60;70.90
3923;DHT22;1976;51.694;6.256;2023-08-12T15:45:23;32.10;71.10
3923;DHT22;1976;51.694;6.256;2023-08-12T15:47:49;32.20;69.70
3923;DHT22;1976;51.694;6.256;2023-08-12T15:50:14;32.50;70.20
3923;DHT22;1976;51.694;6.256;2023-08-12T15:52:40;33.10;69.20
3923;DHT22;1976;51.694;6.256;2023-08-12T15:55:06;33.40;66.70
3923;DHT22;1976;51.694;6.256;2023-08-12T15:57:32;33.70;68.90
3923;DHT22;1976;51.694;6.256;2023-08-12T15:59:58;33.70;65.10
3923;DHT22;1976;51.694;6.256;2023-08-12T16:02:24;33.50;64.60
3923;DHT22;1976;51.694;6.256;2023-08-12T16:04:50;33.10;65.10
3923;DHT22;1976;51.694;6.256;2023-08-12T16:07:16;32.90;67.20
3923;DHT22;1976;51.694;6.256;2023-08-12T16:09:42;32.30;66.90